Seavoyager — 9HUM8 — position and weather

sailwx.info

Track history (hours):
 
Tides and Currents Weather Stations Pressure Air Temp Water Temp Dewpoint Dewpoint Depression Visibility Wind Speed Wind Dir Waves Ship Positions

Seavoyager

Last reported at 2015-Mar-30 02:33 UTC. Time now 2015-Mar-30 04:31 UTC.
Position N 39°22' W 011°31'.

Length 273 m; draft 14.7 m.

Type: Ship (hazmat cat A). MMSI: 256439000.

Date/timePositionNaut miles runAvg speedWind from/ knotsBaromVisibWave heightAir tempDewpointWater temp
2015-Mar-30 02:33N 39°22' W 011°31'1611.7
2015-Mar-30 01:11N 39°06' W 011°35'1311.8
2015-Mar-30 00:07N 38°54' W 011°38'2211.9
2015-Mar-29 22:14N 38°32' W 011°44'1211.9
2015-Mar-29 21:12N 38°20' W 011°47'812.0
2015-Mar-29 20:32N 38°12' W 011°49'1212.0
2015-Mar-29 19:32N 38°01' W 011°52'14712.0
2015-Mar-29 07:20N 35°36' W 012°22'911.6
2015-Mar-29 06:33N 35°26' W 012°23'5111.4
2015-Mar-29 02:04N 34°36' W 012°28'1011.5
2015-Mar-29 01:12N 34°26' W 012°30'  
Track history (hours):
 
Tides and Currents Weather Stations Pressure Air Temp Water Temp Dewpoint Dewpoint Depression Visibility Wind Speed Wind Dir Waves Ship Positions

Seavoyager

Last reported at 2015-Mar-30 02:33 UTC. Time now 2015-Mar-30 04:31 UTC.
Position N 39°22' W 011°31'.

Length 273 m; draft 14.7 m.

Type: Ship (hazmat cat A). MMSI: 256439000.

Date/timePositionNaut miles runAvg speedWind from/ knotsBaromVisibWave heightAir tempDewpointWater temp
2015-Mar-30 02:33N 39°22' W 011°31'1611.7
2015-Mar-30 01:11N 39°06' W 011°35'1311.8
2015-Mar-30 00:07N 38°54' W 011°38'2211.9
2015-Mar-29 22:14N 38°32' W 011°44'1211.9
2015-Mar-29 21:12N 38°20' W 011°47'812.0
2015-Mar-29 20:32N 38°12' W 011°49'1212.0
2015-Mar-29 19:32N 38°01' W 011°52'14712.0
2015-Mar-29 07:20N 35°36' W 012°22'911.6
2015-Mar-29 06:33N 35°26' W 012°23'5111.4
2015-Mar-29 02:04N 34°36' W 012°28'1011.5
2015-Mar-29 01:12N 34°26' W 012°30'  

Dump ship's entire track history